sensor_id;sensor_type;location;lat;lon;timestamp;pressure;altitude;pressure_sealevel;temperature;humidity
49709;BME280;35601;55.902;13.606;2023-07-13T00:00:02;100165.63;;;13.52;73.16
49709;BME280;35601;55.902;13.606;2023-07-13T00:02:26;100167.57;;;13.49;73.13
49709;BME280;35601;55.902;13.606;2023-07-13T00:04:52;100170.70;;;13.40;73.23
49709;BME280;35601;55.902;13.606;2023-07-13T00:07:17;100169.73;;;13.58;73.36
49709;BME280;35601;55.902;13.606;2023-07-13T00:09:42;100170.46;;;13.34;73.59
49709;BME280;35601;55.902;13.606;2023-07-13T00:14:32;100170.62;;;13.15;74.21
49709;BME280;35601;55.902;13.606;2023-07-13T00:16:57;100171.40;;;13.33;74.53
49709;BME280;35601;55.902;13.606;2023-07-13T00:19:23;100170.94;;;13.17;75.35
49709;BME280;35601;55.902;13.606;2023-07-13T00:21:48;100169.85;;;13.30;76.36
49709;BME280;35601;55.902;13.606;2023-07-13T00:24:18;100168.35;;;13.10;76.59
49709;BME280;35601;55.902;13.606;2023-07-13T00:26:39;100164.24;;;13.28;76.87
49709;BME280;35601;55.902;13.606;2023-07-13T00:29:04;100164.29;;;12.78;76.66
49709;BME280;35601;55.902;13.606;2023-07-13T00:31:29;100162.66;;;13.02;76.65
49709;BME280;35601;55.902;13.606;2023-07-13T00:33:54;100164.80;;;12.96;76.74
49709;BME280;35601;55.902;13.606;2023-07-13T00:36:20;100165.81;;;13.10;76.49
49709;BME280;35601;55.902;13.606;2023-07-13T00:38:44;100168.05;;;12.58;76.38
49709;BME280;35601;55.902;13.606;2023-07-13T00:41:10;100172.42;;;12.83;76.67
49709;BME280;35601;55.902;13.606;2023-07-13T00:43:35;100174.88;;;12.44;77.22
49709;BME280;35601;55.902;13.606;2023-07-13T00:46:14;100181.54;;;12.19;78.19
49709;BME280;35601;55.902;13.606;2023-07-13T00:48:27;100183.72;;;12.44;77.97
49709;BME280;35601;55.902;13.606;2023-07-13T00:50:53;100183.58;;;12.39;77.84
49709;BME280;35601;55.902;13.606;2023-07-13T00:53:16;100184.55;;;12.17;78.10
49709;BME280;35601;55.902;13.606;2023-07-13T00:55:41;100184.90;;;11.91;78.38
49709;BME280;35601;55.902;13.606;2023-07-13T00:58:06;100182.19;;;12.07;78.20
49709;BME280;35601;55.902;13.606;2023-07-13T01:00:33;100178.14;;;11.79;79.03
49709;BME280;35601;55.902;13.606;2023-07-13T01:02:57;100178.21;;;12.16;78.77
49709;BME280;35601;55.902;13.606;2023-07-13T01:05:23;100178.50;;;11.83;79.05
49709;BME280;35601;55.902;13.606;2023-07-13T01:07:49;100177.17;;;12.00;78.92
49709;BME280;35601;55.902;13.606;2023-07-13T01:10:13;100181.13;;;11.88;79.03
49709;BME280;35601;55.902;13.606;2023-07-13T01:12:38;100181.94;;;11.48;79.57
49709;BME280;35601;55.902;13.606;2023-07-13T01:15:04;100179.66;;;11.78;79.15
49709;BME280;35601;55.902;13.606;2023-07-13T01:17:29;100182.19;;;11.69;79.88
49709;BME280;35601;55.902;13.606;2023-07-13T01:19:53;100184.42;;;11.75;79.46
49709;BME280;35601;55.902;13.606;2023-07-13T01:22:19;100183.91;;;11.97;79.17
49709;BME280;35601;55.902;13.606;2023-07-13T01:24:46;100188.11;;;11.94;78.81
49709;BME280;35601;55.902;13.606;2023-07-13T01:27:10;100191.11;;;11.68;78.72
49709;BME280;35601;55.902;13.606;2023-07-13T01:29:35;100194.58;;;11.83;78.58
49709;BME280;35601;55.902;13.606;2023-07-13T01:31:59;100198.39;;;11.49;79.12
49709;BME280;35601;55.902;13.606;2023-07-13T01:34:24;100202.16;;;11.49;79.82
49709;BME280;35601;55.902;13.606;2023-07-13T01:36:50;100206.27;;;11.55;79.60
49709;BME280;35601;55.902;13.606;2023-07-13T01:39:15;100206.43;;;11.58;79.45
49709;BME280;35601;55.902;13.606;2023-07-13T01:41:40;100208.22;;;11.31;79.99
49709;BME280;35601;55.902;13.606;2023-07-13T01:44:05;100206.74;;;11.27;80.33
49709;BME280;35601;55.902;13.606;2023-07-13T01:46:30;100208.96;;;11.28;80.08
49709;BME280;35601;55.902;13.606;2023-07-13T01:48:56;100204.90;;;11.25;80.47
49709;BME280;35601;55.902;13.606;2023-07-13T01:51:21;100206.05;;;11.19;80.48
49709;BME280;35601;55.902;13.606;2023-07-13T01:53:46;100206.99;;;11.08;80.10
49709;BME280;35601;55.902;13.606;2023-07-13T01:56:11;100212.53;;;11.13;79.70
49709;BME280;35601;55.902;13.606;2023-07-13T01:58:37;100212.29;;;11.14;79.53
49709;BME280;35601;55.902;13.606;2023-07-13T02:01:02;100215.80;;;11.12;79.25
49709;BME280;35601;55.902;13.606;2023-07-13T02:03:27;100219.56;;;11.03;79.20
49709;BME280;35601;55.902;13.606;2023-07-13T02:05:53;100219.73;;;11.05;79.33
49709;BME280;35601;55.902;13.606;2023-07-13T02:08:18;100217.10;;;10.90;80.42
49709;BME280;35601;55.902;13.606;2023-07-13T02:10:44;100220.00;;;10.63;80.65
49709;BME280;35601;55.902;13.606;2023-07-13T02:13:09;100220.53;;;10.89;81.15
49709;BME280;35601;55.902;13.606;2023-07-13T02:15:37;100216.27;;;10.73;81.25
49709;BME280;35601;55.902;13.606;2023-07-13T02:18:00;100214.33;;;11.01;81.52
49709;BME280;35601;55.902;13.606;2023-07-13T02:20:25;100217.47;;;10.95;82.53
49709;BME280;35601;55.902;13.606;2023-07-13T02:22:50;100219.88;;;10.76;83.00
49709;BME280;35601;55.902;13.606;2023-07-13T02:25:15;100218.78;;;10.71;84.17
49709;BME280;35601;55.902;13.606;2023-07-13T02:27:40;100218.34;;;10.99;84.81
49709;BME280;35601;55.902;13.606;2023-07-13T02:30:07;100217.41;;;10.90;84.87
49709;BME280;35601;55.902;13.606;2023-07-13T02:32:31;100218.99;;;11.41;85.53
49709;BME280;35601;55.902;13.606;2023-07-13T02:34:57;100216.89;;;11.00;86.45
49709;BME280;35601;55.902;13.606;2023-07-13T02:37:22;100220.71;;;11.08;86.83
49709;BME280;35601;55.902;13.606;2023-07-13T02:39:47;100220.32;;;11.17;86.98
49709;BME280;35601;55.902;13.606;2023-07-13T02:42:12;100221.49;;;11.39;87.43
49709;BME280;35601;55.902;13.606;2023-07-13T02:44:37;100223.47;;;11.25;87.63
49709;BME280;35601;55.902;13.606;2023-07-13T02:47:03;100225.24;;;11.54;87.45
49709;BME280;35601;55.902;13.606;2023-07-13T02:49:28;100223.83;;;11.40;86.76
49709;BME280;35601;55.902;13.606;2023-07-13T02:51:53;100222.98;;;11.46;85.69
49709;BME280;35601;55.902;13.606;2023-07-13T02:54:18;100224.14;;;11.38;85.88
49709;BME280;35601;55.902;13.606;2023-07-13T02:56:44;100226.27;;;11.41;85.65
49709;BME280;35601;55.902;13.606;2023-07-13T02:59:09;100224.54;;;11.15;85.63
49709;BME280;35601;55.902;13.606;2023-07-13T03:01:35;100223.23;;;11.42;84.85
49709;BME280;35601;55.902;13.606;2023-07-13T03:03:59;100225.87;;;11.39;85.29
49709;BME280;35601;55.902;13.606;2023-07-13T03:06:24;100223.86;;;11.68;84.97
49709;BME280;35601;55.902;13.606;2023-07-13T03:08:50;100223.19;;;11.39;84.78
49709;BME280;35601;55.902;13.606;2023-07-13T03:11:18;100218.78;;;11.38;84.90
49709;BME280;35601;55.902;13.606;2023-07-13T03:13:41;100219.62;;;11.18;84.83
49709;BME280;35601;55.902;13.606;2023-07-13T03:16:06;100221.22;;;11.30;84.96
49709;BME280;35601;55.902;13.606;2023-07-13T03:18:30;100222.92;;;11.67;84.89
49709;BME280;35601;55.902;13.606;2023-07-13T03:20:56;100222.07;;;11.76;84.58
49709;BME280;35601;55.902;13.606;2023-07-13T03:23:22;100221.05;;;11.86;84.16
49709;BME280;35601;55.902;13.606;2023-07-13T03:25:46;100220.10;;;11.73;84.10
49709;BME280;35601;55.902;13.606;2023-07-13T03:28:11;100222.51;;;11.76;84.21
49709;BME280;35601;55.902;13.606;2023-07-13T03:30:36;100220.23;;;12.10;84.02
49709;BME280;35601;55.902;13.606;2023-07-13T03:33:02;100220.59;;;11.96;83.97
49709;BME280;35601;55.902;13.606;2023-07-13T03:35:27;100228.41;;;11.82;83.83
49709;BME280;35601;55.902;13.606;2023-07-13T03:37:52;100227.40;;;11.91;83.62
49709;BME280;35601;55.902;13.606;2023-07-13T03:40:17;100227.39;;;11.96;83.22
49709;BME280;35601;55.902;13.606;2023-07-13T03:42:42;100226.79;;;12.00;82.77
49709;BME280;35601;55.902;13.606;2023-07-13T03:45:09;100223.23;;;12.31;82.53
49709;BME280;35601;55.902;13.606;2023-07-13T03:47:33;100227.11;;;12.11;82.29
49709;BME280;35601;55.902;13.606;2023-07-13T03:49:59;100233.42;;;12.66;82.24
49709;BME280;35601;55.902;13.606;2023-07-13T03:52:24;100239.83;;;12.15;82.41
49709;BME280;35601;55.902;13.606;2023-07-13T03:54:49;100243.36;;;12.37;83.27
49709;BME280;35601;55.902;13.606;2023-07-13T03:57:14;100237.87;;;12.20;83.57
49709;BME280;35601;55.902;13.606;2023-07-13T03:59:39;100238.64;;;12.30;83.97
49709;BME280;35601;55.902;13.606;2023-07-13T04:02:05;100238.53;;;12.68;85.11
49709;BME280;35601;55.902;13.606;2023-07-13T04:04:30;100234.71;;;12.67;86.63
49709;BME280;35601;55.902;13.606;2023-07-13T04:06:55;100235.30;;;13.04;86.83
49709;BME280;35601;55.902;13.606;2023-07-13T04:09:21;100234.75;;;13.40;86.22
49709;BME280;35601;55.902;13.606;2023-07-13T04:11:46;100239.58;;;13.58;85.28
49709;BME280;35601;55.902;13.606;2023-07-13T04:14:11;100239.86;;;13.82;82.81
49709;BME280;35601;55.902;13.606;2023-07-13T04:16:36;100239.30;;;14.04;80.32
49709;BME280;35601;55.902;13.606;2023-07-13T04:19:02;100239.57;;;13.43;79.66
49709;BME280;35601;55.902;13.606;2023-07-13T04:21:28;100239.16;;;14.56;76.33
49709;BME280;35601;55.902;13.606;2023-07-13T04:23:53;100240.80;;;14.72;75.77
49709;BME280;35601;55.902;13.606;2023-07-13T04:26:18;100239.07;;;14.87;75.16
49709;BME280;35601;55.902;13.606;2023-07-13T04:28:43;100244.61;;;14.98;74.22
49709;BME280;35601;55.902;13.606;2023-07-13T04:31:08;100242.91;;;14.78;73.53
49709;BME280;35601;55.902;13.606;2023-07-13T04:33:33;100244.23;;;14.68;74.60
49709;BME280;35601;55.902;13.606;2023-07-13T04:35:59;100245.23;;;15.09;73.36
49709;BME280;35601;55.902;13.606;2023-07-13T04:38:26;100244.02;;;14.98;73.05
49709;BME280;35601;55.902;13.606;2023-07-13T04:40:50;100244.98;;;15.11;72.45
49709;BME280;35601;55.902;13.606;2023-07-13T04:43:15;100241.84;;;15.09;72.57
49709;BME280;35601;55.902;13.606;2023-07-13T04:45:41;100240.29;;;15.21;73.41
49709;BME280;35601;55.902;13.606;2023-07-13T04:48:05;100238.98;;;15.56;72.70
49709;BME280;35601;55.902;13.606;2023-07-13T04:50:30;100237.06;;;15.07;72.43
49709;BME280;35601;55.902;13.606;2023-07-13T04:52:56;100234.99;;;15.37;71.46
49709;BME280;35601;55.902;13.606;2023-07-13T04:55:21;100238.20;;;15.20;72.23
49709;BME280;35601;55.902;13.606;2023-07-13T04:57:46;100237.06;;;15.41;72.02
49709;BME280;35601;55.902;13.606;2023-07-13T05:00:13;100235.78;;;15.37;71.80
49709;BME280;35601;55.902;13.606;2023-07-13T05:02:38;100238.83;;;15.44;71.88
49709;BME280;35601;55.902;13.606;2023-07-13T05:05:01;100239.94;;;15.36;72.83
49709;BME280;35601;55.902;13.606;2023-07-13T05:07:27;100240.43;;;15.39;72.63
49709;BME280;35601;55.902;13.606;2023-07-13T05:09:52;100243.35;;;15.27;72.78
49709;BME280;35601;55.902;13.606;2023-07-13T05:12:17;100245.24;;;15.33;74.41
49709;BME280;35601;55.902;13.606;2023-07-13T05:14:42;100249.26;;;15.12;74.80
49709;BME280;35601;55.902;13.606;2023-07-13T05:17:07;100249.36;;;15.54;75.15
49709;BME280;35601;55.902;13.606;2023-07-13T05:19:32;100250.61;;;15.92;76.06
49709;BME280;35601;55.902;13.606;2023-07-13T05:21:57;100251.61;;;15.94;75.90
49709;BME280;35601;55.902;13.606;2023-07-13T05:24:23;100255.84;;;16.34;75.21
49709;BME280;35601;55.902;13.606;2023-07-13T05:26:48;100254.52;;;16.07;75.95
49709;BME280;35601;55.902;13.606;2023-07-13T05:29:13;100257.77;;;16.58;73.23
49709;BME280;35601;55.902;13.606;2023-07-13T05:31:38;100256.96;;;16.43;73.41
49709;BME280;35601;55.902;13.606;2023-07-13T05:34:04;100259.21;;;16.60;72.75
49709;BME280;35601;55.902;13.606;2023-07-13T05:36:29;100253.02;;;16.49;72.93
49709;BME280;35601;55.902;13.606;2023-07-13T05:38:54;100253.26;;;16.69;71.48
49709;BME280;35601;55.902;13.606;2023-07-13T05:41:19;100254.53;;;16.60;71.72
49709;BME280;35601;55.902;13.606;2023-07-13T05:43:44;100255.78;;;16.62;72.30
49709;BME280;35601;55.902;13.606;2023-07-13T05:46:09;100255.81;;;16.67;72.98
49709;BME280;35601;55.902;13.606;2023-07-13T05:48:34;100256.20;;;16.78;72.91
49709;BME280;35601;55.902;13.606;2023-07-13T05:51:00;100256.31;;;16.85;71.70
49709;BME280;35601;55.902;13.606;2023-07-13T05:53:24;100249.61;;;16.99;72.22
49709;BME280;35601;55.902;13.606;2023-07-13T05:55:50;100248.53;;;16.81;71.85
49709;BME280;35601;55.902;13.606;2023-07-13T05:58:16;100250.44;;;17.35;71.31
49709;BME280;35601;55.902;13.606;2023-07-13T06:00:40;100255.93;;;17.33;70.12
49709;BME280;35601;55.902;13.606;2023-07-13T06:03:05;100253.73;;;17.19;69.96
49709;BME280;35601;55.902;13.606;2023-07-13T06:05:30;100255.68;;;17.32;69.94
49709;BME280;35601;55.902;13.606;2023-07-13T06:07:56;100252.64;;;17.35;67.23
49709;BME280;35601;55.902;13.606;2023-07-13T06:10:21;100250.92;;;17.47;69.21
49709;BME280;35601;55.902;13.606;2023-07-13T06:12:46;100253.35;;;17.35;69.73
49709;BME280;35601;55.902;13.606;2023-07-13T06:15:11;100255.53;;;17.30;69.44
49709;BME280;35601;55.902;13.606;2023-07-13T06:17:37;100257.44;;;17.26;69.22
49709;BME280;35601;55.902;13.606;2023-07-13T06:20:03;100256.62;;;17.32;68.21
49709;BME280;35601;55.902;13.606;2023-07-13T06:22:27;100255.33;;;17.43;68.54
49709;BME280;35601;55.902;13.606;2023-07-13T06:24:53;100256.72;;;17.37;69.01
49709;BME280;35601;55.902;13.606;2023-07-13T06:27:18;100253.70;;;17.40;68.01
49709;BME280;35601;55.902;13.606;2023-07-13T06:29:43;100253.59;;;17.03;66.76
49709;BME280;35601;55.902;13.606;2023-07-13T06:32:08;100252.96;;;17.49;66.73
49709;BME280;35601;55.902;13.606;2023-07-13T06:34:33;100251.22;;;17.35;66.39
49709;BME280;35601;55.902;13.606;2023-07-13T06:36:58;100251.08;;;17.31;66.99
49709;BME280;35601;55.902;13.606;2023-07-13T06:39:23;100250.80;;;17.31;67.21
49709;BME280;35601;55.902;13.606;2023-07-13T06:41:48;100254.03;;;17.47;66.45
49709;BME280;35601;55.902;13.606;2023-07-13T06:44:14;100257.12;;;17.48;65.05
49709;BME280;35601;55.902;13.606;2023-07-13T06:46:40;100255.29;;;17.83;65.28
49709;BME280;35601;55.902;13.606;2023-07-13T06:49:05;100258.39;;;17.90;65.21
49709;BME280;35601;55.902;13.606;2023-07-13T06:51:30;100256.00;;;17.92;63.69
49709;BME280;35601;55.902;13.606;2023-07-13T06:53:55;100261.32;;;17.83;63.96
49709;BME280;35601;55.902;13.606;2023-07-13T06:56:20;100262.13;;;18.23;64.41
49709;BME280;35601;55.902;13.606;2023-07-13T06:58:45;100261.88;;;18.14;63.41
49709;BME280;35601;55.902;13.606;2023-07-13T07:01:10;100256.79;;;17.99;64.17
49709;BME280;35601;55.902;13.606;2023-07-13T07:03:36;100254.44;;;18.68;63.37
49709;BME280;35601;55.902;13.606;2023-07-13T07:06:02;100261.23;;;18.47;63.56
49709;BME280;35601;55.902;13.606;2023-07-13T07:08:26;100257.95;;;18.18;62.70
49709;BME280;35601;55.902;13.606;2023-07-13T07:10:51;100258.57;;;18.22;61.66
49709;BME280;35601;55.902;13.606;2023-07-13T07:13:16;100260.05;;;18.71;61.76
49709;BME280;35601;55.902;13.606;2023-07-13T07:15:41;100260.43;;;18.30;62.06
49709;BME280;35601;55.902;13.606;2023-07-13T07:18:06;100260.75;;;18.55;62.11
49709;BME280;35601;55.902;13.606;2023-07-13T07:20:31;100265.60;;;18.18;62.39
49709;BME280;35601;55.902;13.606;2023-07-13T07:22:56;100265.34;;;18.36;63.59
49709;BME280;35601;55.902;13.606;2023-07-13T07:25:21;100268.23;;;18.29;63.41
49709;BME280;35601;55.902;13.606;2023-07-13T07:27:47;100273.79;;;17.89;63.87
49709;BME280;35601;55.902;13.606;2023-07-13T07:30:13;100273.02;;;18.05;63.83
49709;BME280;35601;55.902;13.606;2023-07-13T07:32:37;100272.84;;;17.97;63.72
49709;BME280;35601;55.902;13.606;2023-07-13T07:35:02;100269.72;;;18.19;62.30
49709;BME280;35601;55.902;13.606;2023-07-13T07:37:27;100276.03;;;18.47;63.92
49709;BME280;35601;55.902;13.606;2023-07-13T07:39:52;100274.31;;;18.01;63.92
49709;BME280;35601;55.902;13.606;2023-07-13T07:42:17;100270.88;;;18.37;62.62
49709;BME280;35601;55.902;13.606;2023-07-13T07:44:42;100276.66;;;18.40;62.02
49709;BME280;35601;55.902;13.606;2023-07-13T07:47:08;100278.85;;;18.22;61.99
49709;BME280;35601;55.902;13.606;2023-07-13T07:49:33;100280.70;;;18.31;61.23
49709;BME280;35601;55.902;13.606;2023-07-13T07:51:58;100278.98;;;18.58;60.78
49709;BME280;35601;55.902;13.606;2023-07-13T07:54:23;100280.84;;;18.19;61.34
49709;BME280;35601;55.902;13.606;2023-07-13T07:56:48;100280.11;;;18.54;63.29
49709;BME280;35601;55.902;13.606;2023-07-13T07:59:13;100279.63;;;18.68;62.96
49709;BME280;35601;55.902;13.606;2023-07-13T08:01:39;100277.36;;;18.70;61.03
49709;BME280;35601;55.902;13.606;2023-07-13T08:04:04;100271.78;;;18.83;61.07
49709;BME280;35601;55.902;13.606;2023-07-13T08:06:30;100269.02;;;19.51;60.60
49709;BME280;35601;55.902;13.606;2023-07-13T08:08:55;100262.95;;;19.48;60.66
49709;BME280;35601;55.902;13.606;2023-07-13T08:11:20;100259.64;;;19.49;58.92
49709;BME280;35601;55.902;13.606;2023-07-13T08:13:44;100252.53;;;19.86;57.58
49709;BME280;35601;55.902;13.606;2023-07-13T08:16:10;100254.87;;;19.90;60.24
49709;BME280;35601;55.902;13.606;2023-07-13T08:18:34;100255.48;;;19.82;58.66
49709;BME280;35601;55.902;13.606;2023-07-13T08:21:03;100253.04;;;19.76;58.32
49709;BME280;35601;55.902;13.606;2023-07-13T08:23:25;100258.19;;;19.82;59.36
49709;BME280;35601;55.902;13.606;2023-07-13T08:25:52;100255.94;;;20.44;58.88
49709;BME280;35601;55.902;13.606;2023-07-13T08:28:15;100261.03;;;21.00;55.03
49709;BME280;35601;55.902;13.606;2023-07-13T08:30:40;100251.88;;;20.71;55.98
49709;BME280;35601;55.902;13.606;2023-07-13T08:33:05;100258.85;;;20.90;55.18
49709;BME280;35601;55.902;13.606;2023-07-13T08:35:30;100251.43;;;21.31;55.05
49709;BME280;35601;55.902;13.606;2023-07-13T08:37:56;100247.69;;;21.55;51.95
49709;BME280;35601;55.902;13.606;2023-07-13T08:40:26;100238.00;;;21.73;53.38
49709;BME280;35601;55.902;13.606;2023-07-13T08:42:50;100241.68;;;21.67;50.21
49709;BME280;35601;55.902;13.606;2023-07-13T08:45:18;100240.91;;;21.94;50.06
49709;BME280;35601;55.902;13.606;2023-07-13T08:47:38;100243.49;;;22.27;49.98
49709;BME280;35601;55.902;13.606;2023-07-13T08:50:02;100246.23;;;22.71;46.83
49709;BME280;35601;55.902;13.606;2023-07-13T08:52:32;100248.38;;;22.77;46.78
49709;BME280;35601;55.902;13.606;2023-07-13T08:54:52;100239.73;;;23.10;49.00
49709;BME280;35601;55.902;13.606;2023-07-13T08:57:19;100238.72;;;22.98;45.51
49709;BME280;35601;55.902;13.606;2023-07-13T08:59:42;100235.47;;;22.80;45.39
49709;BME280;35601;55.902;13.606;2023-07-13T09:02:19;100230.81;;;22.95;44.05
49709;BME280;35601;55.902;13.606;2023-07-13T09:04:36;100234.38;;;22.95;45.18
49709;BME280;35601;55.902;13.606;2023-07-13T09:07:04;100232.58;;;22.82;42.43
49709;BME280;35601;55.902;13.606;2023-07-13T09:09:29;100245.94;;;22.99;42.98
49709;BME280;35601;55.902;13.606;2023-07-13T09:11:52;100242.74;;;22.82;44.58
49709;BME280;35601;55.902;13.606;2023-07-13T09:16:37;100254.03;;;22.24;45.04
49709;BME280;35601;55.902;13.606;2023-07-13T09:19:06;100258.74;;;22.09;45.74
49709;BME280;35601;55.902;13.606;2023-07-13T09:21:31;100262.53;;;21.76;46.94
49709;BME280;35601;55.902;13.606;2023-07-13T09:23:53;100265.15;;;21.01;49.44
49709;BME280;35601;55.902;13.606;2023-07-13T09:26:19;100270.24;;;21.36;52.17
49709;BME280;35601;55.902;13.606;2023-07-13T09:28:44;100276.70;;;20.59;52.81
49709;BME280;35601;55.902;13.606;2023-07-13T09:31:11;100277.25;;;19.90;53.21
49709;BME280;35601;55.902;13.606;2023-07-13T09:33:32;100274.95;;;19.74;55.99
49709;BME280;35601;55.902;13.606;2023-07-13T09:35:58;100278.22;;;19.66;56.64
49709;BME280;35601;55.902;13.606;2023-07-13T09:38:24;100278.78;;;19.18;57.07
49709;BME280;35601;55.902;13.606;2023-07-13T09:40:59;100280.28;;;18.74;56.67
49709;BME280;35601;55.902;13.606;2023-07-13T09:43:14;100281.80;;;18.81;57.66
49709;BME280;35601;55.902;13.606;2023-07-13T09:45:38;100275.54;;;18.47;57.13
49709;BME280;35601;55.902;13.606;2023-07-13T09:48:10;100270.47;;;18.54;58.68
49709;BME280;35601;55.902;13.606;2023-07-13T09:50:28;100266.83;;;18.98;59.34
49709;BME280;35601;55.902;13.606;2023-07-13T09:52:54;100267.23;;;19.40;57.23
49709;BME280;35601;55.902;13.606;2023-07-13T09:55:26;100266.40;;;19.10;56.25
49709;BME280;35601;55.902;13.606;2023-07-13T09:57:47;100269.24;;;19.49;58.87
49709;BME280;35601;55.902;13.606;2023-07-13T10:00:19;100275.67;;;19.50;58.38
49709;BME280;35601;55.902;13.606;2023-07-13T10:02:35;100276.01;;;19.75;54.76
49709;BME280;35601;55.902;13.606;2023-07-13T10:05:01;100270.36;;;20.01;55.95
49709;BME280;35601;55.902;13.606;2023-07-13T10:07:25;100276.87;;;19.72;56.84
49709;BME280;35601;55.902;13.606;2023-07-13T10:09:52;100281.81;;;19.82;58.00
49709;BME280;35601;55.902;13.606;2023-07-13T10:12:15;100284.25;;;19.65;59.33
49709;BME280;35601;55.902;13.606;2023-07-13T10:14:41;100278.98;;;19.89;58.84
49709;BME280;35601;55.902;13.606;2023-07-13T10:17:06;100282.27;;;19.75;61.47
49709;BME280;35601;55.902;13.606;2023-07-13T10:19:32;100282.88;;;19.67;62.20
49709;BME280;35601;55.902;13.606;2023-07-13T10:21:57;100290.43;;;19.29;58.56
49709;BME280;35601;55.902;13.606;2023-07-13T10:24:22;100286.65;;;18.80;57.28
49709;BME280;35601;55.902;13.606;2023-07-13T10:26:48;100282.28;;;18.73;56.35
49709;BME280;35601;55.902;13.606;2023-07-13T10:29:12;100284.73;;;18.77;57.72
49709;BME280;35601;55.902;13.606;2023-07-13T10:31:40;100284.30;;;18.82;59.64
49709;BME280;35601;55.902;13.606;2023-07-13T10:34:00;100282.34;;;18.64;60.35
49709;BME280;35601;55.902;13.606;2023-07-13T10:36:31;100285.09;;;18.46;63.88
49709;BME280;35601;55.902;13.606;2023-07-13T10:38:51;100277.78;;;18.63;65.84
49709;BME280;35601;55.902;13.606;2023-07-13T10:41:19;100271.58;;;18.96;65.60
49709;BME280;35601;55.902;13.606;2023-07-13T10:43:43;100272.08;;;19.53;64.35
49709;BME280;35601;55.902;13.606;2023-07-13T10:46:08;100270.06;;;20.17;59.90
49709;BME280;35601;55.902;13.606;2023-07-13T10:48:32;100269.58;;;19.86;60.79
49709;BME280;35601;55.902;13.606;2023-07-13T10:50:57;100269.53;;;20.62;57.34
49709;BME280;35601;55.902;13.606;2023-07-13T10:53:28;100268.51;;;20.57;58.10
49709;BME280;35601;55.902;13.606;2023-07-13T10:55:58;100260.76;;;21.07;55.31
49709;BME280;35601;55.902;13.606;2023-07-13T10:58:14;100257.72;;;21.49;53.69
49709;BME280;35601;55.902;13.606;2023-07-13T11:00:43;100260.27;;;21.91;53.16
49709;BME280;35601;55.902;13.606;2023-07-13T11:03:02;100267.61;;;22.16;52.52
49709;BME280;35601;55.902;13.606;2023-07-13T11:05:30;100266.49;;;21.96;51.90
49709;BME280;35601;55.902;13.606;2023-07-13T11:07:54;100267.51;;;22.03;52.34
49709;BME280;35601;55.902;13.606;2023-07-13T11:12:52;100269.82;;;22.30;53.24
49709;BME280;35601;55.902;13.606;2023-07-13T11:15:11;100267.81;;;21.82;50.29
49709;BME280;35601;55.902;13.606;2023-07-13T11:17:37;100264.15;;;21.65;49.67
49709;BME280;35601;55.902;13.606;2023-07-13T11:20:09;100268.77;;;21.37;49.85
49709;BME280;35601;55.902;13.606;2023-07-13T11:22:24;100271.22;;;21.68;52.63
49709;BME280;35601;55.902;13.606;2023-07-13T11:24:51;100287.41;;;21.48;52.80
49709;BME280;35601;55.902;13.606;2023-07-13T11:27:23;100300.20;;;20.98;53.57
49709;BME280;35601;55.902;13.606;2023-07-13T11:29:38;100305.50;;;20.24;56.28
49709;BME280;35601;55.902;13.606;2023-07-13T11:34:31;100304.79;;;19.87;58.68
49709;BME280;35601;55.902;13.606;2023-07-13T11:36:53;100310.32;;;19.38;60.98
49709;BME280;35601;55.902;13.606;2023-07-13T11:39:21;100289.99;;;19.30;61.82
49709;BME280;35601;55.902;13.606;2023-07-13T11:41:49;100283.99;;;19.34;59.38
49709;BME280;35601;55.902;13.606;2023-07-13T11:44:13;100282.55;;;19.27;60.77
49709;BME280;35601;55.902;13.606;2023-07-13T11:46:34;100280.99;;;19.24;61.93
49709;BME280;35601;55.902;13.606;2023-07-13T11:48:59;100282.94;;;19.38;61.03
49709;BME280;35601;55.902;13.606;2023-07-13T11:51:28;100286.53;;;19.33;59.62
49709;BME280;35601;55.902;13.606;2023-07-13T11:53:51;100286.06;;;19.41;60.59
49709;BME280;35601;55.902;13.606;2023-07-13T11:56:15;100284.30;;;19.50;63.28
49709;BME280;35601;55.902;13.606;2023-07-13T11:58:40;100280.30;;;19.76;61.02
49709;BME280;35601;55.902;13.606;2023-07-13T12:01:05;100284.18;;;20.07;64.98
49709;BME280;35601;55.902;13.606;2023-07-13T12:03:32;100286.20;;;20.09;61.84
49709;BME280;35601;55.902;13.606;2023-07-13T12:05:56;100285.62;;;20.69;61.12
49709;BME280;35601;55.902;13.606;2023-07-13T12:08:20;100284.35;;;20.62;60.66
49709;BME280;35601;55.902;13.606;2023-07-13T12:10:45;100287.34;;;21.11;60.18
49709;BME280;35601;55.902;13.606;2023-07-13T12:13:10;100281.27;;;21.59;58.36
49709;BME280;35601;55.902;13.606;2023-07-13T12:15:38;100280.64;;;21.77;58.30
49709;BME280;35601;55.902;13.606;2023-07-13T12:18:01;100274.50;;;21.74;57.70
49709;BME280;35601;55.902;13.606;2023-07-13T12:20:27;100276.19;;;21.67;57.56
49709;BME280;35601;55.902;13.606;2023-07-13T12:22:52;100274.94;;;21.82;56.03
49709;BME280;35601;55.902;13.606;2023-07-13T12:25:16;100278.09;;;22.28;57.64
49709;BME280;35601;55.902;13.606;2023-07-13T12:27:41;100275.04;;;22.58;53.74
49709;BME280;35601;55.902;13.606;2023-07-13T12:32:31;100273.52;;;22.72;51.62
49709;BME280;35601;55.902;13.606;2023-07-13T12:34:57;100276.48;;;22.90;52.52
49709;BME280;35601;55.902;13.606;2023-07-13T12:37:22;100272.89;;;23.01;46.90
49709;BME280;35601;55.902;13.606;2023-07-13T12:39:47;100273.90;;;23.30;48.76